aviador You're here:

OIKB Decoded Metar

BANDAR ABBAS in IRAN
Report Time2018-05-21 20:00:00
UTC Time2018-05-21 20:17:02
Flight Rules vfr VFR
Wind010° at 08 kt
W.Decomp.*RWY 03: 7.5 kt HW 2.9 kt LCW
W.Rank010° ranks 5
Current wind is above 010° avg. (5.1)
Visibility9999 m
Phenomena:N/A
Clouds:N/A
Expected CloudBase > 2,000 ft AGL from Temp-Dew spread
CeilingNone
Temp28°C (ISA +13)
Dew Point23°C (74% RH)
Heat Index31.2°C
QNH1008 hPa
Density Alt2,073 ft
Elevation33 ft
Report Wrong Elevation
Raw Report
METAR OIKB 212000Z 01008KT CAVOK 28/23 Q1008 A2977=

Extra information for OIKB:More info

Metar Taf Metar & Taf Last 4 Metars F.Rules Stats Wind Profile Meteogram Temp Stats Airport Information Weather charts Add Link Nearby VenuesMetar ALERT Operation Metar Decoded Social comments